Andice, Texas
Current Conditions -  °F | °C
As of 10:33 AM on Friday 21 Nov 2014 (Local Time) from KGTU Reporting Station
Overcast Overcast  
Wind Chill: 66°   Ceiling: 1600
Heat Index: 66°   Visibility: 10mi
Dew Point: 64°   Wind: 10mph
Humidity: 94%   Direction: 160°SSE
Pressure: 30.11"   Gusts: NA
Location:  30.6575°N, 97.7523°W
Report Text: KGTU 211633Z 16009KT 10SM SCT010 BKN016 OVC021 19/18 A3011
Loading
Personal Weather Stations






























Interactive Weather Map New forecast layout! Learn more

10-Day Weather Forecast

Advertisements
Track Severe Weather on mobile